sensor_id;sensor_type;location;lat;lon;timestamp;P1;durP1;ratioP1;P2;durP2;ratioP2
48795;SDS011;34607;48.520;-1.330;2023-03-01T08:04:46;25.17;;;18.77;;
48795;SDS011;34607;48.520;-1.330;2023-03-01T08:07:13;23.90;;;19.05;;
48795;SDS011;34607;48.520;-1.330;2023-03-01T08:09:40;23.20;;;18.90;;
48795;SDS011;34607;48.520;-1.330;2023-03-01T08:12:07;22.23;;;18.42;;
48795;SDS011;34607;48.520;-1.330;2023-03-01T08:14:34;22.48;;;18.55;;
48795;SDS011;34607;48.520;-1.330;2023-03-01T08:17:01;21.75;;;18.77;;
48795;SDS011;34607;48.520;-1.330;2023-03-01T08:19:29;21.50;;;18.95;;
48795;SDS011;34607;48.520;-1.330;2023-03-01T08:21:57;24.58;;;18.52;;
48795;SDS011;34607;48.520;-1.330;2023-03-01T08:24:25;25.20;;;19.00;;
48795;SDS011;34607;48.520;-1.330;2023-03-01T08:26:52;20.90;;;17.98;;
48795;SDS011;34607;48.520;-1.330;2023-03-01T08:29:20;22.52;;;19.02;;
48795;SDS011;34607;48.520;-1.330;2023-03-01T08:31:47;24.90;;;16.35;;
48795;SDS011;34607;48.520;-1.330;2023-03-01T08:34:15;24.48;;;18.27;;
48795;SDS011;34607;48.520;-1.330;2023-03-01T08:36:45;24.77;;;17.67;;
48795;SDS011;34607;48.520;-1.330;2023-03-01T08:39:14;24.20;;;20.58;;
48795;SDS011;34607;48.520;-1.330;2023-03-01T08:41:43;30.08;;;23.80;;
48795;SDS011;34607;48.520;-1.330;2023-03-01T08:44:11;26.35;;;22.10;;
48795;SDS011;34607;48.520;-1.330;2023-03-01T08:46:42;25.25;;;21.70;;
48795;SDS011;34607;48.520;-1.330;2023-03-01T08:49:11;23.52;;;20.17;;
48795;SDS011;34607;48.520;-1.330;2023-03-01T08:51:40;24.13;;;19.58;;
48795;SDS011;34607;48.520;-1.330;2023-03-01T08:54:09;22.83;;;19.02;;
48795;SDS011;34607;48.520;-1.330;2023-03-01T08:56:41;20.95;;;17.85;;
48795;SDS011;34607;48.520;-1.330;2023-03-01T08:59:09;21.20;;;17.75;;
48795;SDS011;34607;48.520;-1.330;2023-03-01T09:01:36;20.67;;;17.33;;
48795;SDS011;34607;48.520;-1.330;2023-03-01T09:04:03;20.02;;;18.00;;
48795;SDS011;34607;48.520;-1.330;2023-03-01T09:06:31;22.00;;;18.65;;
48795;SDS011;34607;48.520;-1.330;2023-03-01T09:08:59;23.95;;;20.02;;
48795;SDS011;34607;48.520;-1.330;2023-03-01T09:11:27;23.30;;;18.85;;
48795;SDS011;34607;48.520;-1.330;2023-03-01T09:13:56;22.30;;;18.40;;
48795;SDS011;34607;48.520;-1.330;2023-03-01T09:16:23;22.90;;;19.73;;
48795;SDS011;34607;48.520;-1.330;2023-03-01T09:18:51;35.58;;;18.92;;
48795;SDS011;34607;48.520;-1.330;2023-03-01T09:21:20;20.75;;;18.45;;
48795;SDS011;34607;48.520;-1.330;2023-03-01T09:23:49;20.27;;;18.25;;
48795;SDS011;34607;48.520;-1.330;2023-03-01T09:26:17;22.02;;;19.05;;
48795;SDS011;34607;48.520;-1.330;2023-03-01T09:28:46;20.05;;;17.83;;
48795;SDS011;34607;48.520;-1.330;2023-03-01T09:31:16;20.50;;;18.08;;
48795;SDS011;34607;48.520;-1.330;2023-03-01T09:33:45;21.33;;;17.30;;
48795;SDS011;34607;48.520;-1.330;2023-03-01T09:36:13;22.92;;;18.88;;
48795;SDS011;34607;48.520;-1.330;2023-03-01T09:38:42;20.00;;;17.13;;
48795;SDS011;34607;48.520;-1.330;2023-03-01T09:41:09;21.92;;;17.83;;
48795;SDS011;34607;48.520;-1.330;2023-03-01T09:43:40;22.08;;;17.75;;
48795;SDS011;34607;48.520;-1.330;2023-03-01T09:46:12;16.77;;;14.82;;
48795;SDS011;34607;48.520;-1.330;2023-03-01T09:48:43;26.52;;;21.45;;
48795;SDS011;34607;48.520;-1.330;2023-03-01T09:51:15;22.40;;;19.20;;
48795;SDS011;34607;48.520;-1.330;2023-03-01T09:53:45;21.58;;;19.05;;
48795;SDS011;34607;48.520;-1.330;2023-03-01T09:56:13;24.25;;;20.35;;
48795;SDS011;34607;48.520;-1.330;2023-03-01T09:58:47;23.60;;;19.52;;
48795;SDS011;34607;48.520;-1.330;2023-03-01T10:01:25;24.53;;;20.73;;
48795;SDS011;34607;48.520;-1.330;2023-03-01T10:04:23;27.45;;;21.73;;
48795;SDS011;34607;48.520;-1.330;2023-03-01T10:07:06;24.85;;;20.70;;
48795;SDS011;34607;48.520;-1.330;2023-03-01T10:09:44;22.35;;;20.05;;
48795;SDS011;34607;48.520;-1.330;2023-03-01T10:12:13;21.42;;;19.15;;
48795;SDS011;34607;48.520;-1.330;2023-03-01T10:14:44;21.30;;;18.20;;
48795;SDS011;34607;48.520;-1.330;2023-03-01T10:17:19;24.13;;;19.05;;
48795;SDS011;34607;48.520;-1.330;2023-03-01T10:19:56;20.35;;;17.88;;
48795;SDS011;34607;48.520;-1.330;2023-03-01T10:22:41;20.80;;;18.35;;
48795;SDS011;34607;48.520;-1.330;2023-03-01T10:25:12;22.63;;;19.27;;
48795;SDS011;34607;48.520;-1.330;2023-03-01T10:27:43;19.33;;;17.27;;
48795;SDS011;34607;48.520;-1.330;2023-03-01T10:32:46;18.42;;;16.42;;
48795;SDS011;34607;48.520;-1.330;2023-03-01T10:35:20;19.50;;;17.50;;
48795;SDS011;34607;48.520;-1.330;2023-03-01T10:37:58;19.65;;;17.30;;
48795;SDS011;34607;48.520;-1.330;2023-03-01T10:40:31;17.75;;;15.95;;
48795;SDS011;34607;48.520;-1.330;2023-03-01T10:42:59;19.45;;;16.80;;
48795;SDS011;34607;48.520;-1.330;2023-03-01T10:45:33;18.42;;;16.42;;
48795;SDS011;34607;48.520;-1.330;2023-03-01T10:48:08;19.48;;;16.25;;
48795;SDS011;34607;48.520;-1.330;2023-03-01T10:50:41;17.42;;;15.40;;
48795;SDS011;34607;48.520;-1.330;2023-03-01T10:53:19;18.00;;;16.17;;
48795;SDS011;34607;48.520;-1.330;2023-03-01T10:55:56;17.63;;;14.55;;
48795;SDS011;34607;48.520;-1.330;2023-03-01T10:58:25;17.92;;;14.95;;
48795;SDS011;34607;48.520;-1.330;2023-03-01T11:00:53;16.98;;;14.23;;
48795;SDS011;34607;48.520;-1.330;2023-03-01T11:03:22;15.73;;;14.13;;
48795;SDS011;34607;48.520;-1.330;2023-03-01T11:05:54;16.40;;;14.43;;
48795;SDS011;34607;48.520;-1.330;2023-03-01T11:08:30;16.70;;;14.68;;
48795;SDS011;34607;48.520;-1.330;2023-03-01T11:13:58;16.15;;;14.45;;
48795;SDS011;34607;48.520;-1.330;2023-03-01T11:16:30;12.35;;;11.05;;
48795;SDS011;34607;48.520;-1.330;2023-03-01T11:19:01;12.82;;;11.55;;
48795;SDS011;34607;48.520;-1.330;2023-03-01T11:21:42;13.93;;;11.27;;
48795;SDS011;34607;48.520;-1.330;2023-03-01T11:24:14;11.10;;;10.10;;
48795;SDS011;34607;48.520;-1.330;2023-03-01T11:26:44;14.98;;;12.68;;
48795;SDS011;34607;48.520;-1.330;2023-03-01T11:29:16;13.05;;;11.65;;
48795;SDS011;34607;48.520;-1.330;2023-03-01T11:31:49;12.43;;;11.13;;
48795;SDS011;34607;48.520;-1.330;2023-03-01T11:34:18;11.30;;;10.20;;
48795;SDS011;34607;48.520;-1.330;2023-03-01T11:36:52;9.35;;;8.45;;
48795;SDS011;34607;48.520;-1.330;2023-03-01T11:39:25;9.32;;;8.40;;
48795;SDS011;34607;48.520;-1.330;2023-03-01T11:42:00;10.27;;;9.02;;
48795;SDS011;34607;48.520;-1.330;2023-03-01T11:44:39;9.02;;;8.20;;
48795;SDS011;34607;48.520;-1.330;2023-03-01T11:47:19;9.30;;;8.40;;
48795;SDS011;34607;48.520;-1.330;2023-03-01T11:52:59;8.98;;;8.07;;
48795;SDS011;34607;48.520;-1.330;2023-03-01T11:55:42;8.10;;;7.38;;
48795;SDS011;34607;48.520;-1.330;2023-03-01T11:58:25;9.10;;;7.65;;
48795;SDS011;34607;48.520;-1.330;2023-03-01T12:01:07;8.15;;;6.82;;
48795;SDS011;34607;48.520;-1.330;2023-03-01T12:06:52;8.13;;;7.10;;
48795;SDS011;34607;48.520;-1.330;2023-03-01T12:09:31;7.43;;;6.72;;
48795;SDS011;34607;48.520;-1.330;2023-03-01T12:15:17;8.90;;;8.10;;
48795;SDS011;34607;48.520;-1.330;2023-03-01T12:18:04;8.10;;;7.30;;
48795;SDS011;34607;48.520;-1.330;2023-03-01T12:20:54;8.57;;;7.78;;
48795;SDS011;34607;48.520;-1.330;2023-03-01T12:23:43;9.73;;;6.60;;
48795;SDS011;34607;48.520;-1.330;2023-03-01T12:26:25;10.70;;;8.02;;
48795;SDS011;34607;48.520;-1.330;2023-03-01T12:28:59;9.77;;;8.50;;
48795;SDS011;34607;48.520;-1.330;2023-03-01T12:31:45;8.35;;;7.45;;
48795;SDS011;34607;48.520;-1.330;2023-03-01T12:34:38;10.10;;;8.10;;
48795;SDS011;34607;48.520;-1.330;2023-03-01T12:37:29;9.93;;;7.15;;
48795;SDS011;34607;48.520;-1.330;2023-03-01T12:43:22;8.32;;;7.43;;
48795;SDS011;34607;48.520;-1.330;2023-03-01T12:49:05;9.43;;;6.97;;
48795;SDS011;34607;48.520;-1.330;2023-03-01T12:51:37;10.55;;;7.45;;
48795;SDS011;34607;48.520;-1.330;2023-03-01T12:54:07;7.72;;;6.68;;
48795;SDS011;34607;48.520;-1.330;2023-03-01T12:56:41;7.78;;;7.07;;
48795;SDS011;34607;48.520;-1.330;2023-03-01T12:59:19;9.90;;;7.60;;
48795;SDS011;34607;48.520;-1.330;2023-03-01T13:01:55;7.93;;;7.13;;
48795;SDS011;34607;48.520;-1.330;2023-03-01T13:04:35;9.27;;;8.40;;
48795;SDS011;34607;48.520;-1.330;2023-03-01T13:07:15;8.90;;;7.93;;
48795;SDS011;34607;48.520;-1.330;2023-03-01T13:09:51;9.10;;;7.93;;
48795;SDS011;34607;48.520;-1.330;2023-03-01T13:12:42;9.50;;;8.55;;
48795;SDS011;34607;48.520;-1.330;2023-03-01T13:15:32;9.70;;;8.57;;
48795;SDS011;34607;48.520;-1.330;2023-03-01T13:18:00;11.25;;;10.18;;
48795;SDS011;34607;48.520;-1.330;2023-03-01T13:20:31;11.32;;;10.23;;
48795;SDS011;34607;48.520;-1.330;2023-03-01T13:23:03;10.57;;;9.57;;
48795;SDS011;34607;48.520;-1.330;2023-03-01T13:25:34;11.27;;;9.77;;
48795;SDS011;34607;48.520;-1.330;2023-03-01T13:37:25;13.38;;;11.95;;
48795;SDS011;34607;48.520;-1.330;2023-03-01T13:39:55;13.57;;;12.27;;
48795;SDS011;34607;48.520;-1.330;2023-03-01T13:45:24;12.32;;;11.13;;
48795;SDS011;34607;48.520;-1.330;2023-03-01T13:48:02;13.68;;;12.38;;
48795;SDS011;34607;48.520;-1.330;2023-03-01T13:50:38;14.73;;;13.23;;
48795;SDS011;34607;48.520;-1.330;2023-03-01T13:53:14;13.85;;;12.52;;
48795;SDS011;34607;48.520;-1.330;2023-03-01T13:55:44;15.55;;;12.80;;
48795;SDS011;34607;48.520;-1.330;2023-03-01T13:58:15;14.02;;;12.52;;
48795;SDS011;34607;48.520;-1.330;2023-03-01T14:00:47;15.05;;;12.35;;
48795;SDS011;34607;48.520;-1.330;2023-03-01T14:03:15;16.75;;;13.00;;
48795;SDS011;34607;48.520;-1.330;2023-03-01T14:05:58;13.88;;;12.32;;
48795;SDS011;34607;48.520;-1.330;2023-03-01T14:08:29;13.88;;;12.38;;
48795;SDS011;34607;48.520;-1.330;2023-03-01T14:11:04;13.45;;;12.15;;
48795;SDS011;34607;48.520;-1.330;2023-03-01T14:13:59;15.70;;;13.18;;
48795;SDS011;34607;48.520;-1.330;2023-03-01T14:16:42;19.88;;;13.05;;
48795;SDS011;34607;48.520;-1.330;2023-03-01T14:19:17;15.80;;;14.35;;
48795;SDS011;34607;48.520;-1.330;2023-03-01T14:21:52;16.25;;;14.57;;
48795;SDS011;34607;48.520;-1.330;2023-03-01T14:24:29;15.55;;;13.95;;
48795;SDS011;34607;48.520;-1.330;2023-03-01T14:27:00;17.98;;;15.10;;
48795;SDS011;34607;48.520;-1.330;2023-03-01T14:29:32;16.75;;;15.05;;
48795;SDS011;34607;48.520;-1.330;2023-03-01T14:32:08;18.05;;;16.15;;
48795;SDS011;34607;48.520;-1.330;2023-03-01T14:34:38;20.70;;;16.17;;
48795;SDS011;34607;48.520;-1.330;2023-03-01T14:37:11;18.73;;;16.10;;
48795;SDS011;34607;48.520;-1.330;2023-03-01T14:39:46;18.00;;;16.08;;
48795;SDS011;34607;48.520;-1.330;2023-03-01T14:42:13;18.42;;;16.45;;
48795;SDS011;34607;48.520;-1.330;2023-03-01T14:44:42;19.77;;;17.30;;
48795;SDS011;34607;48.520;-1.330;2023-03-01T14:47:11;18.85;;;17.05;;
48795;SDS011;34607;48.520;-1.330;2023-03-01T14:49:41;19.73;;;16.40;;
48795;SDS011;34607;48.520;-1.330;2023-03-01T14:52:17;19.48;;;17.08;;
48795;SDS011;34607;48.520;-1.330;2023-03-01T14:54:48;16.98;;;15.18;;
48795;SDS011;34607;48.520;-1.330;2023-03-01T14:57:19;16.98;;;15.05;;
48795;SDS011;34607;48.520;-1.330;2023-03-01T14:59:48;18.05;;;15.43;;
48795;SDS011;34607;48.520;-1.330;2023-03-01T15:02:18;17.23;;;14.80;;
48795;SDS011;34607;48.520;-1.330;2023-03-01T15:04:49;17.75;;;15.93;;
48795;SDS011;34607;48.520;-1.330;2023-03-01T15:07:19;17.67;;;15.32;;
48795;SDS011;34607;48.520;-1.330;2023-03-01T15:09:46;15.90;;;14.30;;
48795;SDS011;34607;48.520;-1.330;2023-03-01T15:17:48;15.05;;;13.43;;
48795;SDS011;34607;48.520;-1.330;2023-03-01T15:20:20;17.67;;;14.13;;
48795;SDS011;34607;48.520;-1.330;2023-03-01T15:22:52;14.98;;;13.50;;
48795;SDS011;34607;48.520;-1.330;2023-03-01T15:25:22;14.13;;;12.70;;
48795;SDS011;34607;48.520;-1.330;2023-03-01T15:27:51;15.50;;;13.68;;
48795;SDS011;34607;48.520;-1.330;2023-03-01T15:30:20;14.88;;;12.75;;
48795;SDS011;34607;48.520;-1.330;2023-03-01T15:35:55;14.13;;;12.63;;
48795;SDS011;34607;48.520;-1.330;2023-03-01T15:38:28;13.57;;;12.23;;
48795;SDS011;34607;48.520;-1.330;2023-03-01T15:41:04;13.60;;;12.20;;
48795;SDS011;34607;48.520;-1.330;2023-03-01T15:43:47;12.85;;;11.45;;
48795;SDS011;34607;48.520;-1.330;2023-03-01T15:46:20;13.40;;;11.98;;
48795;SDS011;34607;48.520;-1.330;2023-03-01T15:48:51;16.67;;;12.32;;
48795;SDS011;34607;48.520;-1.330;2023-03-01T15:51:22;14.75;;;12.32;;
48795;SDS011;34607;48.520;-1.330;2023-03-01T15:53:55;14.60;;;13.25;;
48795;SDS011;34607;48.520;-1.330;2023-03-01T15:56:24;16.30;;;13.20;;
48795;SDS011;34607;48.520;-1.330;2023-03-01T15:58:51;16.45;;;13.70;;
48795;SDS011;34607;48.520;-1.330;2023-03-01T16:01:19;14.32;;;12.85;;
48795;SDS011;34607;48.520;-1.330;2023-03-01T16:03:46;14.63;;;12.52;;
48795;SDS011;34607;48.520;-1.330;2023-03-01T16:06:14;12.95;;;11.63;;
48795;SDS011;34607;48.520;-1.330;2023-03-01T16:08:41;14.60;;;11.95;;
48795;SDS011;34607;48.520;-1.330;2023-03-01T16:11:14;13.75;;;12.43;;
48795;SDS011;34607;48.520;-1.330;2023-03-01T16:13:43;15.50;;;12.18;;
48795;SDS011;34607;48.520;-1.330;2023-03-01T16:16:10;15.35;;;11.95;;
48795;SDS011;34607;48.520;-1.330;2023-03-01T16:18:40;14.07;;;11.38;;
48795;SDS011;34607;48.520;-1.330;2023-03-01T16:21:10;13.23;;;11.68;;
48795;SDS011;34607;48.520;-1.330;2023-03-01T16:23:41;13.48;;;11.75;;
48795;SDS011;34607;48.520;-1.330;2023-03-01T16:26:08;14.55;;;11.20;;
48795;SDS011;34607;48.520;-1.330;2023-03-01T16:28:37;13.38;;;11.25;;
48795;SDS011;34607;48.520;-1.330;2023-03-01T16:31:04;14.05;;;12.05;;
48795;SDS011;34607;48.520;-1.330;2023-03-01T16:33:31;14.85;;;12.15;;
48795;SDS011;34607;48.520;-1.330;2023-03-01T16:35:59;14.80;;;12.23;;
48795;SDS011;34607;48.520;-1.330;2023-03-01T16:38:27;14.45;;;11.32;;
48795;SDS011;34607;48.520;-1.330;2023-03-01T16:40:55;15.93;;;13.50;;
48795;SDS011;34607;48.520;-1.330;2023-03-01T16:43:22;15.90;;;13.90;;
48795;SDS011;34607;48.520;-1.330;2023-03-01T16:45:50;14.02;;;12.43;;
48795;SDS011;34607;48.520;-1.330;2023-03-01T16:48:17;15.98;;;14.13;;
48795;SDS011;34607;48.520;-1.330;2023-03-01T16:50:44;15.50;;;12.10;;
48795;SDS011;34607;48.520;-1.330;2023-03-01T16:53:11;14.50;;;12.95;;
48795;SDS011;34607;48.520;-1.330;2023-03-01T16:55:38;13.77;;;12.38;;
48795;SDS011;34607;48.520;-1.330;2023-03-01T16:58:10;15.35;;;12.75;;
48795;SDS011;34607;48.520;-1.330;2023-03-01T17:00:37;13.68;;;12.38;;
48795;SDS011;34607;48.520;-1.330;2023-03-01T17:03:06;14.30;;;12.90;;
48795;SDS011;34607;48.520;-1.330;2023-03-01T17:05:33;15.13;;;12.38;;
48795;SDS011;34607;48.520;-1.330;2023-03-01T17:08:00;14.25;;;12.77;;
48795;SDS011;34607;48.520;-1.330;2023-03-01T17:10:27;18.65;;;12.60;;
48795;SDS011;34607;48.520;-1.330;2023-03-01T17:12:54;16.92;;;13.35;;
48795;SDS011;34607;48.520;-1.330;2023-03-01T17:15:21;14.50;;;12.05;;
48795;SDS011;34607;48.520;-1.330;2023-03-01T17:17:48;18.80;;;12.88;;
48795;SDS011;34607;48.520;-1.330;2023-03-01T17:20:17;14.50;;;12.77;;
48795;SDS011;34607;48.520;-1.330;2023-03-01T17:22:45;15.60;;;12.13;;
48795;SDS011;34607;48.520;-1.330;2023-03-01T17:25:12;15.70;;;12.73;;
48795;SDS011;34607;48.520;-1.330;2023-03-01T17:27:40;16.73;;;12.68;;
48795;SDS011;34607;48.520;-1.330;2023-03-01T17:30:07;15.90;;;12.68;;
48795;SDS011;34607;48.520;-1.330;2023-03-01T17:32:37;16.17;;;12.82;;
48795;SDS011;34607;48.520;-1.330;2023-03-01T17:35:04;18.30;;;11.30;;
48795;SDS011;34607;48.520;-1.330;2023-03-01T17:37:33;13.10;;;11.07;;
48795;SDS011;34607;48.520;-1.330;2023-03-01T17:40:02;15.25;;;12.52;;
48795;SDS011;34607;48.520;-1.330;2023-03-01T17:42:29;15.68;;;11.45;;
48795;SDS011;34607;48.520;-1.330;2023-03-01T17:44:56;15.90;;;12.60;;
48795;SDS011;34607;48.520;-1.330;2023-03-01T17:47:24;16.45;;;12.05;;
48795;SDS011;34607;48.520;-1.330;2023-03-01T17:49:51;18.00;;;12.45;;
48795;SDS011;34607;48.520;-1.330;2023-03-01T17:52:18;20.33;;;13.23;;
48795;SDS011;34607;48.520;-1.330;2023-03-01T17:54:49;17.05;;;12.15;;
48795;SDS011;34607;48.520;-1.330;2023-03-01T17:57:16;16.67;;;12.70;;
48795;SDS011;34607;48.520;-1.330;2023-03-01T17:59:43;15.68;;;13.25;;
48795;SDS011;34607;48.520;-1.330;2023-03-01T18:02:11;14.98;;;12.43;;
48795;SDS011;34607;48.520;-1.330;2023-03-01T18:04:38;16.00;;;11.65;;
48795;SDS011;34607;48.520;-1.330;2023-03-01T18:07:05;21.00;;;12.25;;
48795;SDS011;34607;48.520;-1.330;2023-03-01T18:09:32;13.70;;;11.40;;
48795;SDS011;34607;48.520;-1.330;2023-03-01T18:12:00;14.98;;;11.57;;
48795;SDS011;34607;48.520;-1.330;2023-03-01T18:14:27;14.38;;;11.88;;
48795;SDS011;34607;48.520;-1.330;2023-03-01T18:16:58;14.35;;;12.65;;
48795;SDS011;34607;48.520;-1.330;2023-03-01T18:19:26;16.60;;;12.77;;
48795;SDS011;34607;48.520;-1.330;2023-03-01T18:21:54;14.63;;;12.18;;
48795;SDS011;34607;48.520;-1.330;2023-03-01T18:24:21;15.02;;;12.45;;
48795;SDS011;34607;48.520;-1.330;2023-03-01T18:26:48;17.10;;;11.80;;
48795;SDS011;34607;48.520;-1.330;2023-03-01T18:29:17;14.45;;;11.50;;
48795;SDS011;34607;48.520;-1.330;2023-03-01T18:31:44;17.02;;;12.52;;
48795;SDS011;34607;48.520;-1.330;2023-03-01T18:34:11;15.57;;;11.57;;
48795;SDS011;34607;48.520;-1.330;2023-03-01T18:36:38;17.10;;;12.57;;
48795;SDS011;34607;48.520;-1.330;2023-03-01T18:39:05;19.63;;;13.20;;
48795;SDS011;34607;48.520;-1.330;2023-03-01T18:41:33;18.60;;;13.25;;
48795;SDS011;34607;48.520;-1.330;2023-03-01T18:44:02;19.50;;;12.95;;
48795;SDS011;34607;48.520;-1.330;2023-03-01T18:46:32;18.73;;;12.63;;
48795;SDS011;34607;48.520;-1.330;2023-03-01T18:49:01;18.45;;;12.15;;
48795;SDS011;34607;48.520;-1.330;2023-03-01T18:51:28;18.60;;;12.52;;
48795;SDS011;34607;48.520;-1.330;2023-03-01T18:53:55;16.33;;;12.73;;
48795;SDS011;34607;48.520;-1.330;2023-03-01T18:56:24;20.83;;;14.02;;
48795;SDS011;34607;48.520;-1.330;2023-03-01T18:58:51;16.45;;;12.18;;
48795;SDS011;34607;48.520;-1.330;2023-03-01T19:01:19;19.08;;;13.15;;
48795;SDS011;34607;48.520;-1.330;2023-03-01T19:03:50;15.70;;;12.57;;
48795;SDS011;34607;48.520;-1.330;2023-03-01T19:06:17;21.33;;;13.10;;
48795;SDS011;34607;48.520;-1.330;2023-03-01T19:08:45;19.63;;;13.00;;
48795;SDS011;34607;48.520;-1.330;2023-03-01T19:11:13;16.98;;;12.35;;
48795;SDS011;34607;48.520;-1.330;2023-03-01T19:19:02;18.35;;;13.40;;
48795;SDS011;34607;48.520;-1.330;2023-03-01T19:21:30;14.38;;;12.25;;
48795;SDS011;34607;48.520;-1.330;2023-03-01T19:23:58;14.68;;;11.95;;
48795;SDS011;34607;48.520;-1.330;2023-03-01T19:26:27;17.33;;;11.75;;
48795;SDS011;34607;48.520;-1.330;2023-03-01T19:28:55;15.35;;;11.68;;
48795;SDS011;34607;48.520;-1.330;2023-03-01T19:31:23;14.85;;;11.45;;
48795;SDS011;34607;48.520;-1.330;2023-03-01T19:33:53;17.02;;;12.18;;
48795;SDS011;34607;48.520;-1.330;2023-03-01T19:36:23;13.63;;;11.07;;
48795;SDS011;34607;48.520;-1.330;2023-03-01T19:38:57;15.32;;;11.45;;
48795;SDS011;34607;48.520;-1.330;2023-03-01T19:41:25;14.32;;;12.75;;
48795;SDS011;34607;48.520;-1.330;2023-03-01T19:43:53;18.52;;;12.13;;
48795;SDS011;34607;48.520;-1.330;2023-03-01T19:46:21;15.38;;;12.32;;
48795;SDS011;34607;48.520;-1.330;2023-03-01T19:48:50;18.25;;;11.50;;
48795;SDS011;34607;48.520;-1.330;2023-03-01T19:51:18;15.82;;;11.32;;
48795;SDS011;34607;48.520;-1.330;2023-03-01T19:53:46;16.58;;;12.60;;
48795;SDS011;34607;48.520;-1.330;2023-03-01T19:56:13;19.27;;;12.70;;
48795;SDS011;34607;48.520;-1.330;2023-03-01T19:58:40;16.75;;;12.52;;
48795;SDS011;34607;48.520;-1.330;2023-03-01T20:01:14;17.27;;;13.20;;
48795;SDS011;34607;48.520;-1.330;2023-03-01T20:03:42;23.60;;;13.80;;
48795;SDS011;34607;48.520;-1.330;2023-03-01T20:06:09;16.30;;;11.85;;
48795;SDS011;34607;48.520;-1.330;2023-03-01T20:08:38;16.05;;;12.65;;
48795;SDS011;34607;48.520;-1.330;2023-03-01T20:11:07;17.63;;;12.15;;
48795;SDS011;34607;48.520;-1.330;2023-03-01T20:13:36;15.02;;;11.43;;
48795;SDS011;34607;48.520;-1.330;2023-03-01T20:16:04;15.35;;;12.73;;
48795;SDS011;34607;48.520;-1.330;2023-03-01T20:18:31;19.15;;;11.98;;
48795;SDS011;34607;48.520;-1.330;2023-03-01T20:20:59;22.42;;;11.77;;
48795;SDS011;34607;48.520;-1.330;2023-03-01T20:23:26;17.98;;;12.60;;
48795;SDS011;34607;48.520;-1.330;2023-03-01T20:26:00;15.38;;;12.75;;
48795;SDS011;34607;48.520;-1.330;2023-03-01T20:31:01;18.20;;;12.23;;
48795;SDS011;34607;48.520;-1.330;2023-03-01T20:33:29;18.40;;;12.18;;
48795;SDS011;34607;48.520;-1.330;2023-03-01T20:35:56;19.38;;;11.73;;
48795;SDS011;34607;48.520;-1.330;2023-03-01T20:38:23;22.75;;;12.30;;
48795;SDS011;34607;48.520;-1.330;2023-03-01T20:40:55;16.20;;;11.15;;
48795;SDS011;34607;48.520;-1.330;2023-03-01T20:43:23;21.33;;;13.32;;
48795;SDS011;34607;48.520;-1.330;2023-03-01T20:45:51;16.70;;;12.70;;
48795;SDS011;34607;48.520;-1.330;2023-03-01T20:48:18;19.33;;;11.73;;
48795;SDS011;34607;48.520;-1.330;2023-03-01T20:50:45;17.73;;;12.00;;
48795;SDS011;34607;48.520;-1.330;2023-03-01T20:53:12;19.67;;;12.32;;
48795;SDS011;34607;48.520;-1.330;2023-03-01T20:55:40;19.85;;;12.38;;
48795;SDS011;34607;48.520;-1.330;2023-03-01T20:58:07;16.40;;;11.65;;
48795;SDS011;34607;48.520;-1.330;2023-03-01T21:00:34;19.00;;;11.93;;
48795;SDS011;34607;48.520;-1.330;2023-03-01T21:03:03;14.00;;;10.60;;
48795;SDS011;34607;48.520;-1.330;2023-03-01T21:05:30;15.68;;;11.00;;
48795;SDS011;34607;48.520;-1.330;2023-03-01T21:07:57;15.48;;;9.82;;
48795;SDS011;34607;48.520;-1.330;2023-03-01T21:10:27;15.48;;;10.30;;
48795;SDS011;34607;48.520;-1.330;2023-03-01T21:12:54;16.65;;;9.75;;
48795;SDS011;34607;48.520;-1.330;2023-03-01T21:15:22;15.52;;;10.52;;
48795;SDS011;34607;48.520;-1.330;2023-03-01T21:17:49;17.73;;;9.88;;
48795;SDS011;34607;48.520;-1.330;2023-03-01T21:20:18;13.82;;;9.45;;
48795;SDS011;34607;48.520;-1.330;2023-03-01T21:22:45;14.93;;;10.15;;
48795;SDS011;34607;48.520;-1.330;2023-03-01T21:25:12;13.48;;;9.23;;
48795;SDS011;34607;48.520;-1.330;2023-03-01T21:27:39;11.48;;;9.20;;
48795;SDS011;34607;48.520;-1.330;2023-03-01T21:30:07;15.18;;;9.82;;
48795;SDS011;34607;48.520;-1.330;2023-03-01T21:32:34;16.17;;;9.77;;
48795;SDS011;34607;48.520;-1.330;2023-03-01T21:35:01;14.45;;;9.35;;
48795;SDS011;34607;48.520;-1.330;2023-03-01T21:37:30;15.50;;;10.05;;
48795;SDS011;34607;48.520;-1.330;2023-03-01T21:39:57;14.00;;;9.60;;
48795;SDS011;34607;48.520;-1.330;2023-03-01T21:42:24;16.67;;;10.10;;
48795;SDS011;34607;48.520;-1.330;2023-03-01T21:44:51;15.27;;;9.00;;
48795;SDS011;34607;48.520;-1.330;2023-03-01T21:47:18;12.65;;;10.05;;
48795;SDS011;34607;48.520;-1.330;2023-03-01T21:49:45;14.55;;;10.32;;
48795;SDS011;34607;48.520;-1.330;2023-03-01T21:52:12;14.80;;;9.90;;
48795;SDS011;34607;48.520;-1.330;2023-03-01T21:54:42;14.88;;;10.60;;
48795;SDS011;34607;48.520;-1.330;2023-03-01T21:57:10;16.45;;;9.75;;
48795;SDS011;34607;48.520;-1.330;2023-03-01T21:59:37;14.13;;;10.35;;
48795;SDS011;34607;48.520;-1.330;2023-03-01T22:02:05;13.23;;;10.43;;
48795;SDS011;34607;48.520;-1.330;2023-03-01T22:04:32;13.25;;;11.32;;
48795;SDS011;34607;48.520;-1.330;2023-03-01T22:06:59;16.15;;;10.45;;
48795;SDS011;34607;48.520;-1.330;2023-03-01T22:09:28;19.33;;;15.77;;
48795;SDS011;34607;48.520;-1.330;2023-03-01T22:11:57;14.43;;;11.60;;
48795;SDS011;34607;48.520;-1.330;2023-03-01T22:14:26;13.65;;;10.73;;
48795;SDS011;34607;48.520;-1.330;2023-03-01T22:16:55;13.27;;;9.82;;
48795;SDS011;34607;48.520;-1.330;2023-03-01T22:19:23;12.27;;;10.27;;
48795;SDS011;34607;48.520;-1.330;2023-03-01T22:21:51;14.55;;;10.65;;
48795;SDS011;34607;48.520;-1.330;2023-03-01T22:24:19;19.00;;;11.38;;
48795;SDS011;34607;48.520;-1.330;2023-03-01T22:26:48;16.42;;;11.77;;
48795;SDS011;34607;48.520;-1.330;2023-03-01T22:29:18;14.93;;;12.10;;
48795;SDS011;34607;48.520;-1.330;2023-03-01T22:31:46;15.50;;;11.25;;
